sensor_id;sensor_type;location;lat;lon;timestamp;temperature;humidity
20946;DHT22;10632;51.276;7.116;2024-01-30T00:00:38;8.90;99.90
20946;DHT22;10632;51.276;7.116;2024-01-30T00:03:06;8.80;99.90
20946;DHT22;10632;51.276;7.116;2024-01-30T00:05:33;8.80;99.90
20946;DHT22;10632;51.276;7.116;2024-01-30T00:08:00;8.80;99.90
20946;DHT22;10632;51.276;7.116;2024-01-30T00:10:27;8.80;99.90
20946;DHT22;10632;51.276;7.116;2024-01-30T00:12:54;8.80;99.90
20946;DHT22;10632;51.276;7.116;2024-01-30T00:15:21;8.80;99.90
20946;DHT22;10632;51.276;7.116;2024-01-30T00:17:48;8.80;99.90
20946;DHT22;10632;51.276;7.116;2024-01-30T00:20:20;8.80;99.90
20946;DHT22;10632;51.276;7.116;2024-01-30T00:22:47;8.70;99.90
20946;DHT22;10632;51.276;7.116;2024-01-30T00:25:14;8.70;99.90
20946;DHT22;10632;51.276;7.116;2024-01-30T00:27:41;8.70;99.90
20946;DHT22;10632;51.276;7.116;2024-01-30T00:30:09;8.70;99.90
20946;DHT22;10632;51.276;7.116;2024-01-30T00:32:36;8.70;99.90
20946;DHT22;10632;51.276;7.116;2024-01-30T00:35:03;8.70;99.90
20946;DHT22;10632;51.276;7.116;2024-01-30T00:37:31;8.70;99.90
20946;DHT22;10632;51.276;7.116;2024-01-30T00:39:58;8.70;99.90
20946;DHT22;10632;51.276;7.116;2024-01-30T00:42:27;8.70;99.90
20946;DHT22;10632;51.276;7.116;2024-01-30T00:44:54;8.70;99.90
20946;DHT22;10632;51.276;7.116;2024-01-30T00:47:21;8.70;99.90
20946;DHT22;10632;51.276;7.116;2024-01-30T00:49:48;8.60;99.90
20946;DHT22;10632;51.276;7.116;2024-01-30T00:52:16;8.60;99.90
20946;DHT22;10632;51.276;7.116;2024-01-30T00:54:44;8.60;99.90
20946;DHT22;10632;51.276;7.116;2024-01-30T00:57:12;8.60;99.90
20946;DHT22;10632;51.276;7.116;2024-01-30T00:59:39;8.60;99.90
20946;DHT22;10632;51.276;7.116;2024-01-30T01:02:06;8.60;99.90
20946;DHT22;10632;51.276;7.116;2024-01-30T01:04:33;8.60;99.90
20946;DHT22;10632;51.276;7.116;2024-01-30T01:06:59;8.60;99.90
20946;DHT22;10632;51.276;7.116;2024-01-30T01:09:26;8.50;99.90
20946;DHT22;10632;51.276;7.116;2024-01-30T01:11:55;8.50;99.90
20946;DHT22;10632;51.276;7.116;2024-01-30T01:14:22;8.50;99.90
20946;DHT22;10632;51.276;7.116;2024-01-30T01:16:49;8.50;99.90
20946;DHT22;10632;51.276;7.116;2024-01-30T01:19:16;8.50;99.90
20946;DHT22;10632;51.276;7.116;2024-01-30T01:21:43;8.50;99.90
20946;DHT22;10632;51.276;7.116;2024-01-30T01:24:10;8.50;99.90
20946;DHT22;10632;51.276;7.116;2024-01-30T01:26:37;8.50;99.90
20946;DHT22;10632;51.276;7.116;2024-01-30T01:29:06;8.50;99.90
20946;DHT22;10632;51.276;7.116;2024-01-30T01:31:35;8.50;99.90
20946;DHT22;10632;51.276;7.116;2024-01-30T01:34:05;8.50;99.90
20946;DHT22;10632;51.276;7.116;2024-01-30T01:36:32;8.50;99.90
20946;DHT22;10632;51.276;7.116;2024-01-30T01:38:59;8.50;99.90
20946;DHT22;10632;51.276;7.116;2024-01-30T01:41:30;8.50;99.90
20946;DHT22;10632;51.276;7.116;2024-01-30T01:43:57;8.40;99.90
20946;DHT22;10632;51.276;7.116;2024-01-30T01:46:27;8.40;99.90
20946;DHT22;10632;51.276;7.116;2024-01-30T01:48:55;8.50;99.90
20946;DHT22;10632;51.276;7.116;2024-01-30T01:51:22;8.40;99.90
20946;DHT22;10632;51.276;7.116;2024-01-30T01:53:49;8.50;99.90
20946;DHT22;10632;51.276;7.116;2024-01-30T01:56:17;8.40;99.90
20946;DHT22;10632;51.276;7.116;2024-01-30T01:58:45;8.40;99.90
20946;DHT22;10632;51.276;7.116;2024-01-30T02:01:13;8.40;99.90
20946;DHT22;10632;51.276;7.116;2024-01-30T02:03:43;8.40;99.90
20946;DHT22;10632;51.276;7.116;2024-01-30T02:06:10;8.40;99.90
20946;DHT22;10632;51.276;7.116;2024-01-30T02:08:37;8.40;99.90
20946;DHT22;10632;51.276;7.116;2024-01-30T02:11:05;8.40;99.90
20946;DHT22;10632;51.276;7.116;2024-01-30T02:13:32;8.30;99.90
20946;DHT22;10632;51.276;7.116;2024-01-30T02:16:00;8.30;99.90
20946;DHT22;10632;51.276;7.116;2024-01-30T02:18:27;8.30;99.90
20946;DHT22;10632;51.276;7.116;2024-01-30T02:20:58;8.30;99.90
20946;DHT22;10632;51.276;7.116;2024-01-30T02:23:29;8.20;99.90
20946;DHT22;10632;51.276;7.116;2024-01-30T02:25:57;8.30;99.90
20946;DHT22;10632;51.276;7.116;2024-01-30T02:28:24;8.30;99.90
20946;DHT22;10632;51.276;7.116;2024-01-30T02:30:53;8.30;99.90
20946;DHT22;10632;51.276;7.116;2024-01-30T02:33:22;8.30;99.90
20946;DHT22;10632;51.276;7.116;2024-01-30T02:35:49;8.30;99.90
20946;DHT22;10632;51.276;7.116;2024-01-30T02:38:16;8.30;99.90
20946;DHT22;10632;51.276;7.116;2024-01-30T02:40:44;8.30;99.90
20946;DHT22;10632;51.276;7.116;2024-01-30T02:43:11;8.30;99.90
20946;DHT22;10632;51.276;7.116;2024-01-30T02:45:38;8.30;99.90
20946;DHT22;10632;51.276;7.116;2024-01-30T02:48:06;8.30;99.90
20946;DHT22;10632;51.276;7.116;2024-01-30T02:50:33;8.30;99.90
20946;DHT22;10632;51.276;7.116;2024-01-30T02:53:00;8.30;99.90
20946;DHT22;10632;51.276;7.116;2024-01-30T02:55:27;8.30;99.90
20946;DHT22;10632;51.276;7.116;2024-01-30T02:57:55;8.30;99.90
20946;DHT22;10632;51.276;7.116;2024-01-30T03:00:23;8.30;99.90
20946;DHT22;10632;51.276;7.116;2024-01-30T03:02:50;8.30;99.90
20946;DHT22;10632;51.276;7.116;2024-01-30T03:05:17;8.40;99.90
20946;DHT22;10632;51.276;7.116;2024-01-30T03:07:44;8.40;99.90
20946;DHT22;10632;51.276;7.116;2024-01-30T03:10:11;8.40;99.90
20946;DHT22;10632;51.276;7.116;2024-01-30T03:12:38;8.50;99.90
20946;DHT22;10632;51.276;7.116;2024-01-30T03:15:06;8.40;99.90
20946;DHT22;10632;51.276;7.116;2024-01-30T03:17:35;8.40;99.90
20946;DHT22;10632;51.276;7.116;2024-01-30T03:20:02;8.50;99.90
20946;DHT22;10632;51.276;7.116;2024-01-30T03:22:29;8.50;99.90
20946;DHT22;10632;51.276;7.116;2024-01-30T03:24:56;8.50;99.90
20946;DHT22;10632;51.276;7.116;2024-01-30T03:27:23;8.50;99.90
20946;DHT22;10632;51.276;7.116;2024-01-30T03:29:50;8.50;99.90
20946;DHT22;10632;51.276;7.116;2024-01-30T03:32:20;8.60;99.90
20946;DHT22;10632;51.276;7.116;2024-01-30T03:34:47;8.60;99.90
20946;DHT22;10632;51.276;7.116;2024-01-30T03:37:14;8.60;99.90
20946;DHT22;10632;51.276;7.116;2024-01-30T03:39:41;8.60;99.90
20946;DHT22;10632;51.276;7.116;2024-01-30T03:42:08;8.60;99.90
20946;DHT22;10632;51.276;7.116;2024-01-30T03:44:35;8.60;99.90
20946;DHT22;10632;51.276;7.116;2024-01-30T03:47:02;8.60;99.90
20946;DHT22;10632;51.276;7.116;2024-01-30T03:49:30;8.70;99.90
20946;DHT22;10632;51.276;7.116;2024-01-30T03:51:57;8.60;99.90
20946;DHT22;10632;51.276;7.116;2024-01-30T03:54:23;8.70;99.90
20946;DHT22;10632;51.276;7.116;2024-01-30T03:56:50;8.70;99.90
20946;DHT22;10632;51.276;7.116;2024-01-30T03:59:17;8.70;99.90
20946;DHT22;10632;51.276;7.116;2024-01-30T04:01:49;8.70;99.90
20946;DHT22;10632;51.276;7.116;2024-01-30T04:04:16;8.80;99.90
20946;DHT22;10632;51.276;7.116;2024-01-30T04:06:44;8.80;99.90
20946;DHT22;10632;51.276;7.116;2024-01-30T04:09:12;8.80;99.90
20946;DHT22;10632;51.276;7.116;2024-01-30T04:11:40;8.80;99.90
20946;DHT22;10632;51.276;7.116;2024-01-30T04:14:07;8.80;99.90
20946;DHT22;10632;51.276;7.116;2024-01-30T04:16:34;8.90;99.90
20946;DHT22;10632;51.276;7.116;2024-01-30T04:19:01;8.90;99.90
20946;DHT22;10632;51.276;7.116;2024-01-30T04:21:28;8.90;99.90
20946;DHT22;10632;51.276;7.116;2024-01-30T04:23:56;8.90;99.90
20946;DHT22;10632;51.276;7.116;2024-01-30T04:26:23;8.90;99.90
20946;DHT22;10632;51.276;7.116;2024-01-30T04:28:50;8.90;99.90
20946;DHT22;10632;51.276;7.116;2024-01-30T04:31:17;8.90;99.90
20946;DHT22;10632;51.276;7.116;2024-01-30T04:33:44;8.90;99.90
20946;DHT22;10632;51.276;7.116;2024-01-30T04:36:11;8.90;99.90
20946;DHT22;10632;51.276;7.116;2024-01-30T04:38:38;8.90;99.90
20946;DHT22;10632;51.276;7.116;2024-01-30T04:41:06;8.90;99.90
20946;DHT22;10632;51.276;7.116;2024-01-30T04:43:33;8.90;99.90
20946;DHT22;10632;51.276;7.116;2024-01-30T04:46:00;8.90;99.90
20946;DHT22;10632;51.276;7.116;2024-01-30T04:48:27;8.80;99.90
20946;DHT22;10632;51.276;7.116;2024-01-30T04:50:54;8.80;99.90
20946;DHT22;10632;51.276;7.116;2024-01-30T04:53:22;8.80;99.90
20946;DHT22;10632;51.276;7.116;2024-01-30T04:55:48;8.90;99.90
20946;DHT22;10632;51.276;7.116;2024-01-30T04:58:17;8.80;99.90
20946;DHT22;10632;51.276;7.116;2024-01-30T05:00:44;8.80;99.90
20946;DHT22;10632;51.276;7.116;2024-01-30T05:03:11;8.80;99.90
20946;DHT22;10632;51.276;7.116;2024-01-30T05:05:38;8.70;99.90
20946;DHT22;10632;51.276;7.116;2024-01-30T05:08:05;8.70;99.90
20946;DHT22;10632;51.276;7.116;2024-01-30T05:10:32;8.70;99.90
20946;DHT22;10632;51.276;7.116;2024-01-30T05:12:59;8.70;99.90
20946;DHT22;10632;51.276;7.116;2024-01-30T05:15:28;8.70;99.90
20946;DHT22;10632;51.276;7.116;2024-01-30T05:17:55;8.70;99.90
20946;DHT22;10632;51.276;7.116;2024-01-30T05:25:54;8.80;99.90
20946;DHT22;10632;51.276;7.116;2024-01-30T05:28:38;8.80;99.90
20946;DHT22;10632;51.276;7.116;2024-01-30T05:31:10;8.80;99.90
20946;DHT22;10632;51.276;7.116;2024-01-30T05:33:46;8.80;99.90
20946;DHT22;10632;51.276;7.116;2024-01-30T05:36:15;8.80;99.90
20946;DHT22;10632;51.276;7.116;2024-01-30T05:38:46;8.80;99.90
20946;DHT22;10632;51.276;7.116;2024-01-30T05:41:15;8.80;99.90
20946;DHT22;10632;51.276;7.116;2024-01-30T05:43:43;8.80;99.90
20946;DHT22;10632;51.276;7.116;2024-01-30T05:46:17;8.80;99.90
20946;DHT22;10632;51.276;7.116;2024-01-30T05:48:44;8.80;99.90
20946;DHT22;10632;51.276;7.116;2024-01-30T05:51:11;8.80;99.90
20946;DHT22;10632;51.276;7.116;2024-01-30T05:53:38;8.80;99.90
20946;DHT22;10632;51.276;7.116;2024-01-30T05:56:06;8.80;99.90
20946;DHT22;10632;51.276;7.116;2024-01-30T05:58:34;8.80;99.90
20946;DHT22;10632;51.276;7.116;2024-01-30T06:01:03;8.80;99.90
20946;DHT22;10632;51.276;7.116;2024-01-30T06:03:31;8.90;99.90
20946;DHT22;10632;51.276;7.116;2024-01-30T06:05:58;8.80;99.90
20946;DHT22;10632;51.276;7.116;2024-01-30T06:08:25;8.80;99.90
20946;DHT22;10632;51.276;7.116;2024-01-30T06:10:52;8.80;99.90
20946;DHT22;10632;51.276;7.116;2024-01-30T06:13:19;8.80;99.90
20946;DHT22;10632;51.276;7.116;2024-01-30T06:15:46;8.80;99.90
20946;DHT22;10632;51.276;7.116;2024-01-30T06:18:14;8.80;99.90
20946;DHT22;10632;51.276;7.116;2024-01-30T06:20:42;8.80;99.90
20946;DHT22;10632;51.276;7.116;2024-01-30T06:23:09;8.80;99.90
20946;DHT22;10632;51.276;7.116;2024-01-30T06:25:38;8.80;99.90
20946;DHT22;10632;51.276;7.116;2024-01-30T06:28:05;8.80;99.90
20946;DHT22;10632;51.276;7.116;2024-01-30T06:30:32;8.80;99.90
20946;DHT22;10632;51.276;7.116;2024-01-30T06:32:59;8.80;99.90
20946;DHT22;10632;51.276;7.116;2024-01-30T06:35:26;8.70;99.90
20946;DHT22;10632;51.276;7.116;2024-01-30T06:37:55;8.70;99.90
20946;DHT22;10632;51.276;7.116;2024-01-30T06:40:22;8.70;99.90
20946;DHT22;10632;51.276;7.116;2024-01-30T06:42:50;8.60;99.90
20946;DHT22;10632;51.276;7.116;2024-01-30T06:45:17;8.60;99.90
20946;DHT22;10632;51.276;7.116;2024-01-30T06:47:44;8.60;99.90
20946;DHT22;10632;51.276;7.116;2024-01-30T06:50:10;8.60;99.90
20946;DHT22;10632;51.276;7.116;2024-01-30T06:52:37;8.60;99.90
20946;DHT22;10632;51.276;7.116;2024-01-30T06:55:06;8.60;99.90
20946;DHT22;10632;51.276;7.116;2024-01-30T06:57:33;8.60;99.90
20946;DHT22;10632;51.276;7.116;2024-01-30T07:00:00;8.60;99.90
20946;DHT22;10632;51.276;7.116;2024-01-30T07:02:27;8.60;99.90
20946;DHT22;10632;51.276;7.116;2024-01-30T07:04:54;8.60;99.90
20946;DHT22;10632;51.276;7.116;2024-01-30T07:07:21;8.50;99.90
20946;DHT22;10632;51.276;7.116;2024-01-30T07:09:48;8.60;99.90
20946;DHT22;10632;51.276;7.116;2024-01-30T07:12:19;8.60;99.90
20946;DHT22;10632;51.276;7.116;2024-01-30T07:14:46;8.60;99.90
20946;DHT22;10632;51.276;7.116;2024-01-30T07:17:13;8.60;99.90
20946;DHT22;10632;51.276;7.116;2024-01-30T07:19:40;8.60;99.90
20946;DHT22;10632;51.276;7.116;2024-01-30T07:22:08;8.60;99.90
20946;DHT22;10632;51.276;7.116;2024-01-30T07:24:35;8.60;99.90
20946;DHT22;10632;51.276;7.116;2024-01-30T07:27:06;8.60;99.90
20946;DHT22;10632;51.276;7.116;2024-01-30T07:29:34;8.70;99.90
20946;DHT22;10632;51.276;7.116;2024-01-30T07:32:01;8.70;99.90
20946;DHT22;10632;51.276;7.116;2024-01-30T07:34:28;8.70;99.90
20946;DHT22;10632;51.276;7.116;2024-01-30T07:36:54;8.80;99.90
20946;DHT22;10632;51.276;7.116;2024-01-30T07:39:21;8.80;99.90
20946;DHT22;10632;51.276;7.116;2024-01-30T07:41:48;8.70;99.90
20946;DHT22;10632;51.276;7.116;2024-01-30T07:44:15;8.80;99.90
20946;DHT22;10632;51.276;7.116;2024-01-30T07:46:46;8.90;99.90
20946;DHT22;10632;51.276;7.116;2024-01-30T07:49:13;8.90;99.90
20946;DHT22;10632;51.276;7.116;2024-01-30T07:51:40;8.90;99.90
20946;DHT22;10632;51.276;7.116;2024-01-30T07:54:08;8.90;99.90
20946;DHT22;10632;51.276;7.116;2024-01-30T07:56:35;8.90;99.90
20946;DHT22;10632;51.276;7.116;2024-01-30T07:59:02;8.90;99.90
20946;DHT22;10632;51.276;7.116;2024-01-30T08:01:29;9.00;99.90
20946;DHT22;10632;51.276;7.116;2024-01-30T08:03:57;9.00;99.90
20946;DHT22;10632;51.276;7.116;2024-01-30T08:06:24;9.00;99.90
20946;DHT22;10632;51.276;7.116;2024-01-30T08:08:51;9.00;99.90
20946;DHT22;10632;51.276;7.116;2024-01-30T08:11:20;9.10;99.90
20946;DHT22;10632;51.276;7.116;2024-01-30T08:13:51;9.10;99.90
20946;DHT22;10632;51.276;7.116;2024-01-30T08:16:18;9.10;99.90
20946;DHT22;10632;51.276;7.116;2024-01-30T08:18:44;9.10;99.90
20946;DHT22;10632;51.276;7.116;2024-01-30T08:21:13;9.10;99.90
20946;DHT22;10632;51.276;7.116;2024-01-30T08:23:40;9.10;99.90
20946;DHT22;10632;51.276;7.116;2024-01-30T08:26:06;9.10;99.90
20946;DHT22;10632;51.276;7.116;2024-01-30T08:28:33;9.10;99.90
20946;DHT22;10632;51.276;7.116;2024-01-30T08:31:00;9.10;99.90
20946;DHT22;10632;51.276;7.116;2024-01-30T08:33:27;9.10;99.90
20946;DHT22;10632;51.276;7.116;2024-01-30T08:35:54;9.10;99.90
20946;DHT22;10632;51.276;7.116;2024-01-30T08:38:22;9.10;99.90
20946;DHT22;10632;51.276;7.116;2024-01-30T08:40:49;9.10;99.90
20946;DHT22;10632;51.276;7.116;2024-01-30T08:43:16;9.10;99.90
20946;DHT22;10632;51.276;7.116;2024-01-30T08:45:43;9.10;99.90
20946;DHT22;10632;51.276;7.116;2024-01-30T08:48:10;9.10;99.90
20946;DHT22;10632;51.276;7.116;2024-01-30T08:50:37;9.20;99.90
20946;DHT22;10632;51.276;7.116;2024-01-30T08:53:04;9.20;99.90
20946;DHT22;10632;51.276;7.116;2024-01-30T08:55:32;9.20;99.90
20946;DHT22;10632;51.276;7.116;2024-01-30T08:57:59;9.20;99.90
20946;DHT22;10632;51.276;7.116;2024-01-30T09:00:30;9.20;99.90
20946;DHT22;10632;51.276;7.116;2024-01-30T09:02:57;9.20;99.90
20946;DHT22;10632;51.276;7.116;2024-01-30T09:05:24;9.30;99.90
20946;DHT22;10632;51.276;7.116;2024-01-30T09:07:54;9.30;99.90
20946;DHT22;10632;51.276;7.116;2024-01-30T09:10:20;9.30;99.90
20946;DHT22;10632;51.276;7.116;2024-01-30T09:12:49;9.30;99.90
20946;DHT22;10632;51.276;7.116;2024-01-30T09:15:15;9.40;99.90
20946;DHT22;10632;51.276;7.116;2024-01-30T09:17:45;9.40;99.90
20946;DHT22;10632;51.276;7.116;2024-01-30T09:20:12;9.40;99.90
20946;DHT22;10632;51.276;7.116;2024-01-30T09:22:39;9.40;99.90
20946;DHT22;10632;51.276;7.116;2024-01-30T09:25:06;9.40;99.90
20946;DHT22;10632;51.276;7.116;2024-01-30T09:27:33;9.40;99.90
20946;DHT22;10632;51.276;7.116;2024-01-30T09:30:01;9.30;99.90
20946;DHT22;10632;51.276;7.116;2024-01-30T09:32:28;9.30;99.90
20946;DHT22;10632;51.276;7.116;2024-01-30T09:34:55;9.30;99.90
20946;DHT22;10632;51.276;7.116;2024-01-30T09:37:22;9.20;99.90
20946;DHT22;10632;51.276;7.116;2024-01-30T09:39:49;9.20;99.90
20946;DHT22;10632;51.276;7.116;2024-01-30T09:42:21;9.20;99.90
20946;DHT22;10632;51.276;7.116;2024-01-30T09:44:51;9.20;99.90
20946;DHT22;10632;51.276;7.116;2024-01-30T09:47:19;9.20;99.90
20946;DHT22;10632;51.276;7.116;2024-01-30T09:49:46;9.30;99.90
20946;DHT22;10632;51.276;7.116;2024-01-30T09:52:15;9.30;99.90
20946;DHT22;10632;51.276;7.116;2024-01-30T09:54:42;9.30;99.90
20946;DHT22;10632;51.276;7.116;2024-01-30T09:57:11;9.30;99.90
20946;DHT22;10632;51.276;7.116;2024-01-30T09:59:38;9.40;99.90
20946;DHT22;10632;51.276;7.116;2024-01-30T10:02:05;9.40;99.90
20946;DHT22;10632;51.276;7.116;2024-01-30T10:04:35;9.50;99.90
20946;DHT22;10632;51.276;7.116;2024-01-30T10:07:03;9.50;99.90
20946;DHT22;10632;51.276;7.116;2024-01-30T10:09:32;9.50;99.90
20946;DHT22;10632;51.276;7.116;2024-01-30T10:12:02;9.60;99.90
20946;DHT22;10632;51.276;7.116;2024-01-30T10:14:30;9.60;99.90
20946;DHT22;10632;51.276;7.116;2024-01-30T10:16:57;9.60;99.90
20946;DHT22;10632;51.276;7.116;2024-01-30T10:19:24;9.70;99.90
20946;DHT22;10632;51.276;7.116;2024-01-30T10:21:53;9.70;99.90
20946;DHT22;10632;51.276;7.116;2024-01-30T10:24:24;9.70;99.90
20946;DHT22;10632;51.276;7.116;2024-01-30T10:26:51;9.80;99.90
20946;DHT22;10632;51.276;7.116;2024-01-30T10:29:18;9.80;99.90
20946;DHT22;10632;51.276;7.116;2024-01-30T10:31:45;9.80;99.90
20946;DHT22;10632;51.276;7.116;2024-01-30T10:34:12;9.90;99.90
20946;DHT22;10632;51.276;7.116;2024-01-30T10:36:43;9.90;99.90
20946;DHT22;10632;51.276;7.116;2024-01-30T10:39:17;9.90;99.90
20946;DHT22;10632;51.276;7.116;2024-01-30T10:41:44;10.00;99.90
20946;DHT22;10632;51.276;7.116;2024-01-30T10:44:18;10.10;99.90
20946;DHT22;10632;51.276;7.116;2024-01-30T10:46:51;10.20;99.90
20946;DHT22;10632;51.276;7.116;2024-01-30T10:49:21;10.30;99.90
20946;DHT22;10632;51.276;7.116;2024-01-30T10:51:50;10.40;99.90
20946;DHT22;10632;51.276;7.116;2024-01-30T10:54:21;10.50;99.90
20946;DHT22;10632;51.276;7.116;2024-01-30T10:56:50;10.50;99.90
20946;DHT22;10632;51.276;7.116;2024-01-30T10:59:18;10.50;99.90
20946;DHT22;10632;51.276;7.116;2024-01-30T11:01:45;10.50;99.90
20946;DHT22;10632;51.276;7.116;2024-01-30T11:04:12;10.50;99.90
20946;DHT22;10632;51.276;7.116;2024-01-30T11:06:41;10.60;99.90
20946;DHT22;10632;51.276;7.116;2024-01-30T11:09:11;10.50;99.90
20946;DHT22;10632;51.276;7.116;2024-01-30T11:11:55;10.50;99.90
20946;DHT22;10632;51.276;7.116;2024-01-30T11:14:25;10.50;99.90
20946;DHT22;10632;51.276;7.116;2024-01-30T11:17:00;10.50;99.90
20946;DHT22;10632;51.276;7.116;2024-01-30T11:19:34;10.50;99.90
20946;DHT22;10632;51.276;7.116;2024-01-30T11:22:02;10.60;99.90
20946;DHT22;10632;51.276;7.116;2024-01-30T11:24:30;10.60;99.90
20946;DHT22;10632;51.276;7.116;2024-01-30T11:26:59;10.60;99.90
20946;DHT22;10632;51.276;7.116;2024-01-30T11:29:27;10.60;99.90
20946;DHT22;10632;51.276;7.116;2024-01-30T11:31:55;10.60;99.90
20946;DHT22;10632;51.276;7.116;2024-01-30T11:34:22;10.70;99.90
20946;DHT22;10632;51.276;7.116;2024-01-30T11:36:52;10.70;99.90
20946;DHT22;10632;51.276;7.116;2024-01-30T11:39:25;10.70;99.90
20946;DHT22;10632;51.276;7.116;2024-01-30T11:41:52;10.80;99.90
20946;DHT22;10632;51.276;7.116;2024-01-30T11:44:20;10.90;99.90
20946;DHT22;10632;51.276;7.116;2024-01-30T11:46:48;10.90;99.90
20946;DHT22;10632;51.276;7.116;2024-01-30T11:49:16;10.90;99.90
20946;DHT22;10632;51.276;7.116;2024-01-30T11:51:43;10.90;99.90
20946;DHT22;10632;51.276;7.116;2024-01-30T11:54:17;11.00;99.90
20946;DHT22;10632;51.276;7.116;2024-01-30T11:56:44;10.90;99.90
20946;DHT22;10632;51.276;7.116;2024-01-30T11:59:11;10.90;99.90
20946;DHT22;10632;51.276;7.116;2024-01-30T12:01:42;10.90;99.90
20946;DHT22;10632;51.276;7.116;2024-01-30T12:04:09;11.00;99.90
20946;DHT22;10632;51.276;7.116;2024-01-30T12:06:36;10.90;99.90
20946;DHT22;10632;51.276;7.116;2024-01-30T12:09:04;10.90;99.90
20946;DHT22;10632;51.276;7.116;2024-01-30T12:11:33;10.90;99.90
20946;DHT22;10632;51.276;7.116;2024-01-30T12:14:00;10.90;99.90
20946;DHT22;10632;51.276;7.116;2024-01-30T12:16:27;10.90;99.90
20946;DHT22;10632;51.276;7.116;2024-01-30T12:19:01;10.90;99.90
20946;DHT22;10632;51.276;7.116;2024-01-30T12:21:28;10.90;99.90
20946;DHT22;10632;51.276;7.116;2024-01-30T12:23:59;10.80;99.90
20946;DHT22;10632;51.276;7.116;2024-01-30T12:26:27;10.80;99.90
20946;DHT22;10632;51.276;7.116;2024-01-30T12:28:55;10.80;99.90
20946;DHT22;10632;51.276;7.116;2024-01-30T12:31:26;10.80;99.90
20946;DHT22;10632;51.276;7.116;2024-01-30T12:33:53;10.70;99.90
20946;DHT22;10632;51.276;7.116;2024-01-30T12:36:24;10.80;99.90
20946;DHT22;10632;51.276;7.116;2024-01-30T12:38:51;10.70;99.90
20946;DHT22;10632;51.276;7.116;2024-01-30T12:41:19;10.70;99.90
20946;DHT22;10632;51.276;7.116;2024-01-30T12:43:46;10.70;99.90
20946;DHT22;10632;51.276;7.116;2024-01-30T12:46:16;10.70;99.90
20946;DHT22;10632;51.276;7.116;2024-01-30T12:48:43;10.70;99.90
20946;DHT22;10632;51.276;7.116;2024-01-30T12:51:10;10.60;99.90
20946;DHT22;10632;51.276;7.116;2024-01-30T12:53:41;10.60;99.90
20946;DHT22;10632;51.276;7.116;2024-01-30T12:56:08;10.60;99.90
20946;DHT22;10632;51.276;7.116;2024-01-30T12:58:35;10.60;99.90
20946;DHT22;10632;51.276;7.116;2024-01-30T13:01:02;10.60;99.90
20946;DHT22;10632;51.276;7.116;2024-01-30T13:03:29;10.60;99.90
20946;DHT22;10632;51.276;7.116;2024-01-30T13:05:56;10.50;99.90
20946;DHT22;10632;51.276;7.116;2024-01-30T13:08:23;10.60;99.90
20946;DHT22;10632;51.276;7.116;2024-01-30T13:10:51;10.50;99.90
20946;DHT22;10632;51.276;7.116;2024-01-30T13:13:21;10.50;99.90
20946;DHT22;10632;51.276;7.116;2024-01-30T13:15:50;10.50;99.90
20946;DHT22;10632;51.276;7.116;2024-01-30T13:18:19;10.50;99.90
20946;DHT22;10632;51.276;7.116;2024-01-30T13:20:46;10.50;99.90
20946;DHT22;10632;51.276;7.116;2024-01-30T13:23:13;10.50;99.90
20946;DHT22;10632;51.276;7.116;2024-01-30T13:25:40;10.50;99.90
20946;DHT22;10632;51.276;7.116;2024-01-30T13:28:08;10.50;99.90
20946;DHT22;10632;51.276;7.116;2024-01-30T13:30:36;10.50;99.90
20946;DHT22;10632;51.276;7.116;2024-01-30T13:33:03;10.50;99.90
20946;DHT22;10632;51.276;7.116;2024-01-30T13:35:30;10.50;99.90
20946;DHT22;10632;51.276;7.116;2024-01-30T13:37:57;10.40;99.90
20946;DHT22;10632;51.276;7.116;2024-01-30T13:40:24;10.50;99.90
20946;DHT22;10632;51.276;7.116;2024-01-30T13:42:51;10.40;99.90
20946;DHT22;10632;51.276;7.116;2024-01-30T13:45:22;10.40;99.90
20946;DHT22;10632;51.276;7.116;2024-01-30T13:47:49;10.50;99.90
20946;DHT22;10632;51.276;7.116;2024-01-30T13:50:15;10.40;99.90
20946;DHT22;10632;51.276;7.116;2024-01-30T13:52:42;10.40;99.90
20946;DHT22;10632;51.276;7.116;2024-01-30T13:55:11;10.40;99.90
20946;DHT22;10632;51.276;7.116;2024-01-30T13:57:38;10.40;99.90
20946;DHT22;10632;51.276;7.116;2024-01-30T14:00:08;10.40;99.90
20946;DHT22;10632;51.276;7.116;2024-01-30T14:02:37;10.40;99.90
20946;DHT22;10632;51.276;7.116;2024-01-30T14:05:04;10.40;99.90
20946;DHT22;10632;51.276;7.116;2024-01-30T14:07:31;10.40;99.90
20946;DHT22;10632;51.276;7.116;2024-01-30T14:09:58;10.40;99.90
20946;DHT22;10632;51.276;7.116;2024-01-30T14:12:25;10.40;99.90
20946;DHT22;10632;51.276;7.116;2024-01-30T14:14:52;10.40;99.90
20946;DHT22;10632;51.276;7.116;2024-01-30T14:17:20;10.40;99.90
20946;DHT22;10632;51.276;7.116;2024-01-30T14:19:51;10.40;99.90
20946;DHT22;10632;51.276;7.116;2024-01-30T14:22:21;10.40;99.90
20946;DHT22;10632;51.276;7.116;2024-01-30T14:24:48;10.40;99.90
20946;DHT22;10632;51.276;7.116;2024-01-30T14:27:15;10.40;99.90
20946;DHT22;10632;51.276;7.116;2024-01-30T14:29:41;10.40;99.90
20946;DHT22;10632;51.276;7.116;2024-01-30T14:32:09;10.40;99.90
20946;DHT22;10632;51.276;7.116;2024-01-30T14:34:36;10.40;99.90
20946;DHT22;10632;51.276;7.116;2024-01-30T14:37:04;10.40;99.90
20946;DHT22;10632;51.276;7.116;2024-01-30T14:39:31;10.40;99.90
20946;DHT22;10632;51.276;7.116;2024-01-30T14:41:59;10.40;99.90
20946;DHT22;10632;51.276;7.116;2024-01-30T14:44:26;10.40;99.90
20946;DHT22;10632;51.276;7.116;2024-01-30T14:46:53;10.40;99.90
20946;DHT22;10632;51.276;7.116;2024-01-30T14:49:22;10.40;99.90
20946;DHT22;10632;51.276;7.116;2024-01-30T14:51:49;10.40;99.90
20946;DHT22;10632;51.276;7.116;2024-01-30T14:54:17;10.40;99.90
20946;DHT22;10632;51.276;7.116;2024-01-30T14:56:45;10.40;99.90
20946;DHT22;10632;51.276;7.116;2024-01-30T14:59:13;10.40;99.90
20946;DHT22;10632;51.276;7.116;2024-01-30T15:01:40;10.40;99.90
20946;DHT22;10632;51.276;7.116;2024-01-30T15:04:08;10.40;99.90
20946;DHT22;10632;51.276;7.116;2024-01-30T15:06:36;10.40;99.90
20946;DHT22;10632;51.276;7.116;2024-01-30T15:09:03;10.40;99.90
20946;DHT22;10632;51.276;7.116;2024-01-30T15:11:32;10.40;99.90
20946;DHT22;10632;51.276;7.116;2024-01-30T15:14:00;10.40;99.90
20946;DHT22;10632;51.276;7.116;2024-01-30T15:16:29;10.40;99.90
20946;DHT22;10632;51.276;7.116;2024-01-30T15:18:56;10.30;99.90
20946;DHT22;10632;51.276;7.116;2024-01-30T15:21:23;10.30;99.90
20946;DHT22;10632;51.276;7.116;2024-01-30T15:23:50;10.30;99.90
20946;DHT22;10632;51.276;7.116;2024-01-30T15:26:17;10.30;99.90
20946;DHT22;10632;51.276;7.116;2024-01-30T15:28:45;10.30;99.90
20946;DHT22;10632;51.276;7.116;2024-01-30T15:31:12;10.30;99.90
20946;DHT22;10632;51.276;7.116;2024-01-30T15:33:40;10.30;99.90
20946;DHT22;10632;51.276;7.116;2024-01-30T15:36:08;10.30;99.90
20946;DHT22;10632;51.276;7.116;2024-01-30T15:38:36;10.30;99.90
20946;DHT22;10632;51.276;7.116;2024-01-30T15:41:03;10.20;99.90
20946;DHT22;10632;51.276;7.116;2024-01-30T15:43:30;10.20;99.90
20946;DHT22;10632;51.276;7.116;2024-01-30T15:45:59;10.20;99.90
20946;DHT22;10632;51.276;7.116;2024-01-30T15:48:27;10.20;99.90